Time;durP1;ratioP1;P1;durP2;ratioP2;P2;SDS_P1;SDS_P2;PMS_P1;PMS_P2;Temp;Humidity;BMP_temperature;BMP_pressure;BME280_temperature;BME280_humidity;BME280_pressure;Samples;Min_cycle;Max_cycle;Signal;HPM_P1;HPM_P2
2021/07/08 00:00:15;;;;;;;7.30;4.43;;;19.70;89.00;;;;;;6158108;23;20013;-85
2021/07/08 00:02:41;;;;;;;6.07;4.15;;;19.60;89.20;;;;;;6184376;23;20392;-85
2021/07/08 00:05:10;;;;;;;5.85;4.40;;;19.60;89.40;;;;;;6157923;23;20123;-85
2021/07/08 00:07:36;;;;;;;5.90;3.95;;;19.60;89.50;;;;;;6182989;23;19997;-85
2021/07/08 00:10:08;;;;;;;6.43;4.25;;;19.60;89.60;;;;;;6182564;23;20012;-85
2021/07/08 00:12:34;;;;;;;6.25;4.18;;;19.60;89.60;;;;;;6182735;23;20012;-86
2021/07/08 00:15:23;;;;;;;6.45;4.13;;;19.50;89.70;;;;;;6155751;23;20367;-84
2021/07/08 00:17:49;;;;;;;5.70;4.35;;;19.50;89.80;;;;;;6182672;23;20005;-85
2021/07/08 00:20:18;;;;;;;7.25;4.50;;;19.50;89.70;;;;;;6157979;23;20068;-85
2021/07/08 00:22:43;;;;;;;6.43;4.53;;;19.50;89.70;;;;;;6182626;23;20059;-85
2021/07/08 00:25:15;;;;;;;6.15;4.15;;;19.40;89.80;;;;;;6157887;23;20009;-85
2021/07/08 00:27:42;;;;;;;6.40;4.35;;;19.40;89.90;;;;;;6182806;23;20005;-85
2021/07/08 00:30:08;;;;;;;5.38;3.85;;;19.40;90.00;;;;;;6157655;23;20021;-85
2021/07/08 00:32:35;;;;;;;6.93;4.57;;;19.40;90.10;;;;;;6157871;23;20409;-85
2021/07/08 00:35:00;;;;;;;7.80;4.60;;;19.30;90.10;;;;;;6182622;23;20012;-84
2021/07/08 00:37:26;;;;;;;8.35;4.30;;;19.30;90.20;;;;;;6157812;23;20396;-85
2021/07/08 00:39:52;;;;;;;7.78;4.53;;;19.30;90.20;;;;;;6157809;23;20033;-85
2021/07/08 00:42:18;;;;;;;7.93;5.13;;;19.30;90.30;;;;;;6157800;23;20017;-85
2021/07/08 00:44:46;;;;;;;6.15;4.28;;;19.30;90.40;;;;;;6157892;23;20115;-85
2021/07/08 00:47:11;;;;;;;6.10;4.70;;;19.30;90.40;;;;;;6182952;23;20005;-85
2021/07/08 00:49:38;;;;;;;6.55;4.90;;;19.20;90.40;;;;;;6157853;23;20012;-85
2021/07/08 00:52:04;;;;;;;6.53;4.35;;;19.20;90.40;;;;;;6157724;23;20005;-85
2021/07/08 00:54:30;;;;;;;7.07;4.30;;;19.20;90.50;;;;;;6158043;23;20163;-85
2021/07/08 00:56:55;;;;;;;6.72;4.53;;;19.20;90.60;;;;;;6157848;23;20100;-85
2021/07/08 00:59:21;;;;;;;6.32;4.40;;;19.20;90.60;;;;;;6157723;23;20009;-84
2021/07/08 01:01:47;;;;;;;7.20;4.40;;;19.10;90.60;;;;;;6157801;23;20317;-84
2021/07/08 01:04:14;;;;;;;6.68;4.30;;;19.10;90.60;;;;;;6157730;23;20017;-85
2021/07/08 01:06:44;;;;;;;6.15;4.65;;;19.10;90.70;;;;;;6157846;23;20428;-85
2021/07/08 01:09:11;;;;;;;6.20;4.53;;;19.10;91.00;;;;;;6158428;23;20020;-85
2021/07/08 01:11:37;;;;;;;6.68;4.72;;;19.10;90.80;;;;;;6182429;23;20040;-85
2021/07/08 01:14:04;;;;;;;7.28;4.72;;;19.10;90.90;;;;;;6157893;23;20012;-85
2021/07/08 01:16:30;;;;;;;5.25;4.00;;;19.00;91.00;;;;;;6157785;23;20028;-84
2021/07/08 01:18:55;;;;;;;6.53;3.90;;;18.90;90.70;;;;;;6157729;23;20060;-85
2021/07/08 01:21:31;;;;;;;5.05;4.03;;;18.80;90.90;;;;;;6157871;23;20499;-85
2021/07/08 01:23:58;;;;;;;7.47;4.65;;;18.70;91.10;;;;;;6184361;23;20012;-84
2021/07/08 01:26:24;;;;;;;6.97;4.75;;;18.70;91.30;;;;;;6159490;23;20012;-85
2021/07/08 01:28:51;;;;;;;6.57;4.43;;;18.60;91.30;;;;;;6178196;23;20018;-85
2021/07/08 01:31:18;;;;;;;7.15;4.68;;;18.60;91.50;;;;;;6105864;23;20017;-85
2021/07/08 01:33:45;;;;;;;7.20;4.60;;;18.60;91.50;;;;;;6130273;23;20009;-85
2021/07/08 01:36:11;;;;;;;5.30;4.18;;;18.60;91.70;;;;;;6105586;23;20017;-85
2021/07/08 01:38:37;;;;;;;7.22;4.28;;;18.60;91.70;;;;;;6130224;23;20008;-85
2021/07/08 01:41:03;;;;;;;6.75;4.43;;;18.50;91.80;;;;;;6105801;23;20017;-85
2021/07/08 01:43:39;;;;;;;5.75;4.55;;;18.50;92.00;;;;;;6105394;23;20016;-85
2021/07/08 01:46:06;;;;;;;6.10;4.18;;;18.50;92.10;;;;;;6105312;23;20005;-85
2021/07/08 01:48:33;;;;;;;7.38;4.97;;;18.50;92.10;;;;;;6105298;23;20088;-85
2021/07/08 01:51:03;;;;;;;6.13;4.43;;;18.50;92.20;;;;;;6105539;23;20096;-85
2021/07/08 01:53:29;;;;;;;4.82;4.10;;;18.50;92.30;;;;;;6129778;23;20009;-85
2021/07/08 01:55:57;;;;;;;5.60;4.47;;;18.40;92.30;;;;;;6129985;23;20425;-85
2021/07/08 01:58:23;;;;;;;6.68;4.70;;;18.40;92.40;;;;;;6105994;23;20013;-86
2021/07/08 02:00:49;;;;;;;6.53;5.15;;;18.40;92.40;;;;;;6105512;23;20013;-85
2021/07/08 02:06:37;;;;;;;6.85;5.40;;;18.40;92.60;;;;;;6155165;23;20083;-85
2021/07/08 02:09:06;;;;;;;6.65;5.50;;;18.50;92.70;;;;;;6105086;23;20380;-85
2021/07/08 02:11:32;;;;;;;6.45;5.43;;;18.40;92.70;;;;;;6129953;23;20002;-85
2021/07/08 02:13:58;;;;;;;8.02;5.22;;;18.40;92.70;;;;;;6129510;23;20013;-85
2021/07/08 02:16:24;;;;;;;6.45;5.38;;;18.50;92.70;;;;;;6129601;23;20006;-85
2021/07/08 02:18:51;;;;;;;6.82;5.20;;;18.50;92.80;;;;;;6104959;23;20015;-85
2021/07/08 02:21:16;;;;;;;6.30;4.97;;;18.50;92.80;;;;;;6155755;23;20002;-85
2021/07/08 02:23:42;;;;;;;6.88;5.35;;;18.50;92.80;;;;;;6129393;23;20013;-85
2021/07/08 02:26:09;;;;;;;6.45;5.30;;;18.50;92.90;;;;;;6104905;23;20136;-85
2021/07/08 02:28:36;;;;;;;9.32;5.75;;;18.60;92.90;;;;;;6129220;23;20141;-84
2021/07/08 02:31:02;;;;;;;6.75;5.10;;;18.60;92.90;;;;;;6129761;23;20080;-85
2021/07/08 02:33:29;;;;;;;8.15;5.93;;;18.60;92.90;;;;;;6104931;23;20013;-85
2021/07/08 02:35:55;;;;;;;7.18;5.63;;;18.50;92.90;;;;;;6105214;23;20017;-85
2021/07/08 02:38:21;;;;;;;7.45;5.88;;;18.60;93.00;;;;;;6104966;23;20096;-85
2021/07/08 02:40:47;;;;;;;8.02;5.25;;;18.50;92.90;;;;;;6129145;23;20093;-85
2021/07/08 02:43:12;;;;;;;7.40;5.97;;;18.50;93.00;;;;;;6104726;23;20074;-85
2021/07/08 02:45:40;;;;;;;6.55;5.85;;;18.50;93.00;;;;;;6155274;23;20009;-85
2021/07/08 02:48:09;;;;;;;7.63;5.97;;;18.50;93.00;;;;;;6129047;23;20001;-85
2021/07/08 02:50:35;;;;;;;8.65;6.47;;;18.50;93.00;;;;;;6129058;23;20079;-85
2021/07/08 02:53:01;;;;;;;6.90;5.82;;;18.50;93.00;;;;;;6104796;23;20017;-85
2021/07/08 02:55:28;;;;;;;8.52;6.40;;;18.50;93.00;;;;;;6129094;23;20088;-85
2021/07/08 02:57:54;;;;;;;8.02;6.10;;;18.40;93.00;;;;;;6129357;23;20006;-86
2021/07/08 03:00:22;;;;;;;7.72;5.95;;;18.40;92.90;;;;;;6129247;23;20013;-85
2021/07/08 03:02:48;;;;;;;6.65;5.68;;;18.40;93.00;;;;;;6128753;23;20006;-85
2021/07/08 03:05:14;;;;;;;7.38;5.70;;;18.40;93.00;;;;;;6104649;23;20008;-85
2021/07/08 03:07:41;;;;;;;7.95;5.78;;;18.40;93.30;;;;;;6104644;23;20088;-85
2021/07/08 03:10:12;;;;;;;7.50;6.05;;;18.30;93.10;;;;;;6104495;23;20002;-85
2021/07/08 03:12:39;;;;;;;8.90;6.90;;;18.30;93.10;;;;;;6128909;23;20460;-85
2021/07/08 03:15:07;;;;;;;7.78;6.38;;;18.30;93.10;;;;;;6104495;23;20353;-85
2021/07/08 03:17:33;;;;;;;7.10;5.63;;;18.30;93.20;;;;;;6104989;23;20010;-85
2021/07/08 03:19:59;;;;;;;7.82;6.32;;;18.40;93.20;;;;;;6104520;23;20064;-85
2021/07/08 03:23:03;;;;;;;8.38;6.28;;;18.30;93.30;;;;;;6127554;23;20324;-85
2021/07/08 03:25:29;;;;;;;8.85;6.40;;;18.40;93.40;;;;;;6128119;23;20092;-86
2021/07/08 03:27:56;;;;;;;8.35;6.60;;;18.30;93.40;;;;;;6128726;23;20392;-85
2021/07/08 03:30:23;;;;;;;9.00;6.80;;;18.30;93.50;;;;;;6151746;23;20075;-85
2021/07/08 03:32:51;;;;;;;8.65;6.82;;;18.40;93.50;;;;;;6158367;23;20013;-86
2021/07/08 03:35:17;;;;;;;8.60;6.47;;;18.40;93.60;;;;;;6183223;23;20013;-85
2021/07/08 03:37:43;;;;;;;8.00;6.40;;;18.40;93.60;;;;;;6182885;23;20013;-85
2021/07/08 03:40:12;;;;;;;8.02;6.15;;;18.40;93.70;;;;;;6183055;23;20036;-85
2021/07/08 03:42:39;;;;;;;8.10;6.18;;;18.40;93.70;;;;;;6183116;23;20095;-85
2021/07/08 03:45:06;;;;;;;7.90;6.53;;;18.40;93.70;;;;;;6158346;23;20032;-85
2021/07/08 03:47:32;;;;;;;7.93;6.20;;;18.40;93.80;;;;;;6158363;23;20068;-86
2021/07/08 03:49:57;;;;;;;8.50;6.40;;;18.40;93.80;;;;;;6158322;23;20062;-85
2021/07/08 03:52:23;;;;;;;8.05;6.53;;;18.40;93.80;;;;;;6158411;23;20139;-85
2021/07/08 03:54:49;;;;;;;7.78;6.40;;;18.40;93.80;;;;;;6158092;23;20317;-85
2021/07/08 03:57:14;;;;;;;8.32;6.03;;;18.40;93.80;;;;;;6158337;23;20096;-85
2021/07/08 03:59:41;;;;;;;7.38;6.60;;;18.40;93.90;;;;;;6158253;23;20424;-85
2021/07/08 04:02:07;;;;;;;7.95;6.93;;;18.40;93.90;;;;;;6184491;23;20005;-85
2021/07/08 04:04:38;;;;;;;7.68;6.65;;;18.40;94.20;;;;;;6182751;23;20044;-84
2021/07/08 04:07:05;;;;;;;9.00;6.40;;;18.30;93.90;;;;;;6184362;23;20055;-84
2021/07/08 04:09:48;;;;;;;8.85;5.97;;;18.30;93.90;;;;;;6158555;23;20364;-85
2021/07/08 04:12:14;;;;;;;7.40;6.32;;;18.30;94.00;;;;;;6158085;23;20084;-84
2021/07/08 04:14:40;;;;;;;9.43;6.78;;;18.30;94.00;;;;;;6158189;23;20036;-85
2021/07/08 04:17:05;;;;;;;9.10;6.28;;;18.30;94.00;;;;;;6157928;23;20013;-85
2021/07/08 04:19:31;;;;;;;8.68;6.20;;;18.20;94.00;;;;;;6158127;23;20012;-85
2021/07/08 04:21:57;;;;;;;7.53;5.82;;;18.20;94.00;;;;;;6157972;23;20420;-85
2021/07/08 04:24:22;;;;;;;9.43;6.65;;;18.20;94.00;;;;;;6182894;23;20013;-86
2021/07/08 04:26:48;;;;;;;9.77;6.25;;;18.10;94.10;;;;;;6158508;23;20013;-85
2021/07/08 04:29:14;;;;;;;7.45;6.45;;;18.10;94.20;;;;;;6168275;23;20067;-87
2021/07/08 04:31:40;;;;;;;8.82;5.82;;;18.10;94.20;;;;;;6208196;23;20012;-87
2021/07/08 04:34:05;;;;;;;8.15;6.20;;;18.10;94.30;;;;;;6183147;23;20092;-87
2021/07/08 04:36:32;;;;;;;11.38;7.13;;;18.00;94.30;;;;;;6158524;23;20352;-87
2021/07/08 04:38:57;;;;;;;8.93;6.95;;;18.00;94.40;;;;;;6183109;23;20016;-87
2021/07/08 04:41:23;;;;;;;8.52;6.68;;;18.00;94.50;;;;;;6183279;23;20013;-87
2021/07/08 04:43:49;;;;;;;8.57;7.10;;;18.00;94.60;;;;;;6182970;23;20132;-87
2021/07/08 04:46:15;;;;;;;9.98;7.13;;;18.00;94.60;;;;;;6183017;23;20012;-87
2021/07/08 04:48:42;;;;;;;8.93;7.18;;;18.00;94.60;;;;;;6183104;23;20009;-87
2021/07/08 04:51:07;;;;;;;8.48;7.38;;;18.10;94.70;;;;;;6183169;23;20127;-87
2021/07/08 04:53:33;;;;;;;8.02;7.00;;;18.10;94.70;;;;;;6183221;23;20381;-87
2021/07/08 04:55:59;;;;;;;9.10;7.18;;;18.10;94.70;;;;;;6183877;23;20515;-87
2021/07/08 04:58:24;;;;;;;8.95;7.05;;;18.10;94.70;;;;;;6185203;23;20013;-87
2021/07/08 05:00:50;;;;;;;8.40;7.00;;;18.10;94.80;;;;;;6184818;23;20336;-87
2021/07/08 05:03:15;;;;;;;10.18;7.25;;;18.10;94.80;;;;;;6185029;23;20017;-87
2021/07/08 05:05:41;;;;;;;10.70;7.57;;;18.20;94.90;;;;;;6184305;23;20005;-87
2021/07/08 05:08:07;;;;;;;9.43;7.38;;;18.20;94.90;;;;;;6184077;23;20433;-87
2021/07/08 05:10:32;;;;;;;9.75;8.23;;;18.20;95.00;;;;;;6183519;23;20381;-87
2021/07/08 05:13:00;;;;;;;10.02;8.05;;;18.20;95.00;;;;;;6185022;23;20491;-87
2021/07/08 05:15:25;;;;;;;9.52;7.75;;;18.20;95.00;;;;;;6186524;23;20063;-87
2021/07/08 05:17:51;;;;;;;10.45;7.53;;;18.30;95.00;;;;;;6209861;23;20005;-87
2021/07/08 05:20:17;;;;;;;9.32;7.55;;;18.30;95.00;;;;;;6184753;23;20039;-87
2021/07/08 05:22:47;;;;;;;8.52;7.10;;;18.30;95.00;;;;;;6184288;23;20005;-87
2021/07/08 05:25:15;;;;;;;8.87;7.33;;;18.30;95.00;;;;;;6209061;23;20011;-87
2021/07/08 05:27:43;;;;;;;8.02;6.72;;;18.40;95.10;;;;;;6191498;23;20053;-85
2021/07/08 05:30:09;;;;;;;9.00;7.53;;;18.40;95.10;;;;;;6184680;23;20017;-87
2021/07/08 05:32:35;;;;;;;8.88;7.95;;;18.40;95.10;;;;;;6207319;23;20370;-86
2021/07/08 05:35:02;;;;;;;9.35;7.70;;;18.50;95.20;;;;;;6182057;23;20483;-85
2021/07/08 05:37:28;;;;;;;9.50;7.75;;;18.50;95.10;;;;;;6182921;23;20425;-87
2021/07/08 05:39:54;;;;;;;10.63;8.02;;;18.50;95.10;;;;;;6184692;23;20040;-87
2021/07/08 05:42:19;;;;;;;11.75;8.55;;;18.60;95.10;;;;;;6186296;23;20079;-87
2021/07/08 05:44:45;;;;;;;11.02;8.40;;;18.60;95.10;;;;;;6185236;23;20107;-87
2021/07/08 05:47:11;;;;;;;10.70;8.63;;;18.60;95.10;;;;;;6184889;23;20013;-87
2021/07/08 05:49:37;;;;;;;11.07;8.27;;;18.60;95.20;;;;;;6184671;23;20317;-87
2021/07/08 05:52:03;;;;;;;10.88;8.57;;;18.60;95.10;;;;;;6185122;23;20001;-87
2021/07/08 05:54:29;;;;;;;10.80;8.57;;;18.60;95.20;;;;;;6185648;23;20016;-88
2021/07/08 05:56:55;;;;;;;11.32;9.00;;;18.60;95.10;;;;;;6184173;23;20009;-87
2021/07/08 05:59:21;;;;;;;10.85;7.82;;;18.60;95.10;;;;;;6182482;23;20197;-87
2021/07/08 06:01:47;;;;;;;14.20;8.60;;;18.70;95.20;;;;;;6182144;23;20013;-87
2021/07/08 06:04:12;;;;;;;12.30;9.00;;;18.60;95.10;;;;;;6157227;23;20096;-87
2021/07/08 06:06:38;;;;;;;9.80;8.10;;;18.60;95.10;;;;;;6182126;23;20068;-88
2021/07/08 06:09:03;;;;;;;11.27;8.40;;;18.60;95.10;;;;;;6182559;23;20433;-90
2021/07/08 06:11:29;;;;;;;8.00;7.20;;;18.70;95.10;;;;;;6183614;23;20016;-90
2021/07/08 06:13:55;;;;;;;9.10;7.68;;;18.70;95.10;;;;;;6185079;23;20012;-89
2021/07/08 06:16:20;;;;;;;9.52;7.72;;;18.80;95.20;;;;;;6185542;23;20005;-88
2021/07/08 06:18:46;;;;;;;7.97;7.07;;;18.80;95.20;;;;;;6184276;23;20017;-89
2021/07/08 06:21:14;;;;;;;9.57;7.47;;;18.80;95.20;;;;;;6183238;23;20009;-89
2021/07/08 06:23:40;;;;;;;9.68;7.13;;;18.90;95.30;;;;;;6183728;23;20020;-89
2021/07/08 06:26:06;;;;;;;8.40;7.13;;;18.90;95.30;;;;;;6185089;23;20053;-89
2021/07/08 06:28:34;;;;;;;10.57;7.88;;;18.90;95.30;;;;;;6205545;23;20024;-89
2021/07/08 06:31:00;;;;;;;10.13;7.75;;;19.00;95.30;;;;;;6107573;23;20043;-89
2021/07/08 06:33:25;;;;;;;8.73;6.50;;;19.00;95.30;;;;;;6106097;23;20036;-89
2021/07/08 06:35:51;;;;;;;9.05;6.60;;;19.10;95.30;;;;;;6106637;23;20010;-90
2021/07/08 06:38:17;;;;;;;8.70;6.95;;;19.20;95.40;;;;;;6130199;23;20009;-89
2021/07/08 06:40:42;;;;;;;9.75;6.93;;;19.20;95.40;;;;;;6106118;23;20073;-89
2021/07/08 06:43:08;;;;;;;8.25;6.47;;;19.30;95.50;;;;;;6130296;23;20013;-89
2021/07/08 06:45:36;;;;;;;7.45;6.20;;;19.30;95.50;;;;;;6128944;23;20001;-89
2021/07/08 06:48:06;;;;;;;8.73;7.13;;;19.40;95.50;;;;;;6105156;23;20002;-89
2021/07/08 06:50:36;;;;;;;9.50;7.57;;;19.40;95.50;;;;;;6152898;23;20485;-89
2021/07/08 06:53:05;;;;;;;9.02;7.40;;;19.50;95.60;;;;;;6154951;23;20028;-88
2021/07/08 06:55:32;;;;;;;7.47;6.18;;;19.50;95.60;;;;;;6130153;23;20006;-89
2021/07/08 06:57:58;;;;;;;8.77;6.55;;;19.60;95.60;;;;;;6129947;23;20009;-88
2021/07/08 07:00:26;;;;;;;9.48;6.30;;;19.60;95.60;;;;;;6130222;23;20012;-88
2021/07/08 07:02:57;;;;;;;9.45;6.15;;;19.70;95.60;;;;;;6154481;23;19997;-87
2021/07/08 07:05:24;;;;;;;7.70;6.90;;;19.80;95.60;;;;;;6155037;23;20005;-90
2021/07/08 07:07:50;;;;;;;7.93;6.65;;;19.80;95.60;;;;;;6129984;23;20326;-88
2021/07/08 07:10:16;;;;;;;7.47;6.15;;;19.90;95.60;;;;;;6154644;23;20084;-88
2021/07/08 07:13:19;;;;;;;8.85;6.55;;;20.00;95.60;;;;;;6130595;23;20388;-88
2021/07/08 07:15:45;;;;;;;6.68;5.68;;;20.00;95.50;;;;;;6155063;23;20005;-88
2021/07/08 07:18:10;;;;;;;7.07;5.60;;;20.10;95.50;;;;;;6105276;23;20374;-88
2021/07/08 07:20:36;;;;;;;10.93;7.45;;;20.20;95.50;;;;;;6129884;23;20489;-88
2021/07/08 07:23:02;;;;;;;11.15;7.18;;;20.20;95.50;;;;;;6130134;23;20785;-89
2021/07/08 07:25:28;;;;;;;10.88;8.20;;;20.30;95.40;;;;;;6105537;23;20460;-89
2021/07/08 07:27:55;;;;;;;9.95;7.13;;;20.40;95.30;;;;;;6154704;23;20006;-89
2021/07/08 07:30:24;;;;;;;9.13;7.10;;;20.40;95.20;;;;;;6177067;23;20017;-88
2021/07/08 07:32:51;;;;;;;9.85;6.95;;;20.50;95.20;;;;;;6184249;23;20433;-88
2021/07/08 07:35:18;;;;;;;12.10;6.85;;;20.60;95.10;;;;;;6184618;23;20019;-88
2021/07/08 07:37:45;;;;;;;8.27;6.55;;;20.60;95.10;;;;;;6159242;23;20019;-87
2021/07/08 07:40:11;;;;;;;9.32;6.78;;;20.70;95.00;;;;;;6209188;23;20032;-88
2021/07/08 07:42:41;;;;;;;7.35;6.22;;;20.80;95.00;;;;;;6184786;23;20005;-89
2021/07/08 07:45:08;;;;;;;7.22;5.70;;;20.80;94.90;;;;;;6185040;23;20062;-87
2021/07/08 07:47:34;;;;;;;7.25;5.43;;;20.90;94.80;;;;;;6156276;23;20009;-82
2021/07/08 07:50:00;;;;;;;6.57;5.53;;;21.00;94.80;;;;;;6177855;23;20319;-81
2021/07/08 07:52:26;;;;;;;7.30;5.47;;;21.10;94.70;;;;;;6178157;23;20012;-81
2021/07/08 07:54:52;;;;;;;6.60;5.47;;;21.20;94.60;;;;;;6184186;23;20035;-82
2021/07/08 07:57:18;;;;;;;8.98;5.68;;;21.20;94.40;;;;;;6184519;23;20016;-82
2021/07/08 07:59:44;;;;;;;6.40;4.88;;;21.30;94.30;;;;;;6182830;23;20013;-82
2021/07/08 08:02:12;;;;;;;5.95;4.60;;;21.40;94.10;;;;;;6207940;23;20035;-82
2021/07/08 08:04:46;;;;;;;9.02;5.75;;;21.50;94.00;;;;;;6183464;23;20009;-81
2021/07/08 08:09:57;;;;;;;7.50;5.07;;;21.60;93.60;;;;;;6180972;23;20455;-82
2021/07/08 08:12:23;;;;;;;7.70;4.78;;;21.60;93.40;;;;;;6184179;23;20076;-82
2021/07/08 08:14:50;;;;;;;6.85;4.88;;;21.70;93.30;;;;;;6207617;23;20325;-82
2021/07/08 08:17:16;;;;;;;7.15;5.05;;;21.80;93.10;;;;;;6182137;23;20037;-82
2021/07/08 08:19:42;;;;;;;6.38;4.63;;;21.90;92.90;;;;;;6207882;23;20328;-82
2021/07/08 08:22:11;;;;;;;5.95;4.65;;;22.00;92.90;;;;;;6207674;23;20001;-82
2021/07/08 08:24:38;;;;;;;6.38;4.55;;;22.00;92.80;;;;;;6207766;23;20037;-82
2021/07/08 08:27:04;;;;;;;7.25;4.50;;;22.10;92.70;;;;;;6182691;23;20344;-81
2021/07/08 08:29:29;;;;;;;6.38;4.25;;;22.20;92.70;;;;;;6180791;23;20088;-81
2021/07/08 08:31:55;;;;;;;7.15;4.38;;;22.30;92.50;;;;;;6181912;23;20047;-81
2021/07/08 08:34:21;;;;;;;6.00;3.85;;;22.40;92.50;;;;;;6157419;23;20012;-81
2021/07/08 08:36:52;;;;;;;5.03;3.78;;;22.40;92.30;;;;;;6207029;23;20031;-81
2021/07/08 08:39:18;;;;;;;6.72;4.00;;;22.50;92.20;;;;;;6153472;23;20020;-81
2021/07/08 08:41:44;;;;;;;6.60;4.30;;;22.70;92.20;;;;;;6182229;23;20373;-81
2021/07/08 08:44:09;;;;;;;6.90;4.10;;;22.80;91.90;;;;;;6182353;23;20483;-81
2021/07/08 08:46:36;;;;;;;7.88;4.32;;;22.80;91.70;;;;;;6182310;23;20494;-82
2021/07/08 08:49:03;;;;;;;4.53;3.63;;;22.90;91.60;;;;;;6208685;23;20081;-88
2021/07/08 08:51:30;;;;;;;6.90;4.05;;;22.90;91.50;;;;;;6208464;23;20027;-88
2021/07/08 08:53:56;;;;;;;5.20;4.13;;;23.00;91.40;;;;;;6183078;23;20005;-88
2021/07/08 08:56:21;;;;;;;6.47;4.40;;;23.00;91.30;;;;;;6158052;23;20321;-87
2021/07/08 08:58:47;;;;;;;5.82;4.03;;;23.10;91.10;;;;;;6208017;23;20084;-88
2021/07/08 09:01:17;;;;;;;6.70;4.03;;;23.10;90.80;;;;;;6183435;23;20500;-88
2021/07/08 09:03:44;;;;;;;5.63;3.55;;;23.20;90.80;;;;;;6183161;23;20029;-88
2021/07/08 09:06:12;;;;;;;12.38;4.18;;;23.20;90.90;;;;;;6183452;23;20349;-89
2021/07/08 09:08:40;;;;;;;5.45;3.63;;;23.30;90.60;;;;;;6208352;23;20063;-88
2021/07/08 09:11:06;;;;;;;7.25;4.10;;;23.30;90.50;;;;;;6208286;23;20057;-88
2021/07/08 09:13:54;;;;;;;7.18;3.60;;;23.40;90.40;;;;;;6208258;23;20016;-88
2021/07/08 09:16:21;;;;;;;4.70;3.63;;;23.50;90.40;;;;;;6208467;23;20108;-88
2021/07/08 09:19:03;;;;;;;8.18;4.05;;;23.50;90.20;;;;;;6208354;23;20059;-89
2021/07/08 09:21:31;;;;;;;5.68;3.55;;;23.60;90.30;;;;;;6208558;23;20037;-88
2021/07/08 09:24:13;;;;;;;6.43;4.03;;;23.60;90.10;;;;;;6208256;23;20108;-88
2021/07/08 09:26:43;;;;;;;5.35;3.65;;;23.70;90.10;;;;;;6207923;23;20013;-88
2021/07/08 09:29:15;;;;;;;4.55;3.30;;;23.80;89.90;;;;;;6207660;23;20017;-89
2021/07/08 09:31:46;;;;;;;7.07;3.83;;;23.80;89.60;;;;;;6207456;23;20001;-87
2021/07/08 09:34:33;;;;;;;5.85;3.65;;;23.80;89.20;;;;;;6184556;23;20005;-88
2021/07/08 09:37:05;;;;;;;4.90;3.00;;;23.90;89.20;;;;;;6182205;23;20055;-87
2021/07/08 09:39:36;;;;;;;4.68;3.10;;;23.90;89.20;;;;;;6207404;23;20115;-86
2021/07/08 09:42:03;;;;;;;6.55;3.30;;;24.00;89.30;;;;;;6207754;23;20009;-87
2021/07/08 09:44:30;;;;;;;6.30;3.28;;;24.00;89.30;;;;;;6184297;23;20084;-85
2021/07/08 09:46:57;;;;;;;5.55;3.70;;;24.10;88.80;;;;;;6209289;23;20636;-85
2021/07/08 09:49:25;;;;;;;6.45;3.60;;;24.10;86.50;;;;;;6185837;23;20008;-84
2021/07/08 09:51:52;;;;;;;5.57;3.25;;;24.10;85.10;;;;;;6184914;23;20417;-83
2021/07/08 09:57:30;;;;;;;5.55;3.30;;;24.10;85.60;;;;;;6185839;23;20333;-84
2021/07/08 09:59:56;;;;;;;6.93;3.38;;;24.10;85.50;;;;;;6209284;23;20009;-84
2021/07/08 10:02:33;;;;;;;6.57;3.90;;;24.10;82.40;;;;;;6159425;23;20016;-83
2021/07/08 10:05:00;;;;;;;4.50;3.55;;;24.10;82.20;;;;;;6183938;23;20009;-83
2021/07/08 10:07:27;;;;;;;4.80;3.22;;;24.10;82.70;;;;;;6184250;23;20009;-84
2021/07/08 10:09:52;;;;;;;6.00;3.10;;;24.10;81.90;;;;;;6209264;23;20425;-84
2021/07/08 10:12:18;;;;;;;5.30;3.40;;;24.10;81.00;;;;;;6184039;23;20044;-84
2021/07/08 10:14:47;;;;;;;4.50;2.97;;;24.10;80.90;;;;;;6209432;23;20001;-83
2021/07/08 10:17:15;;;;;;;4.97;2.88;;;24.20;81.10;;;;;;6209114;23;20504;-84
2021/07/08 10:19:43;;;;;;;4.97;2.95;;;24.20;81.20;;;;;;6208875;23;20020;-85
2021/07/08 10:22:10;;;;;;;5.05;2.80;;;24.30;81.70;;;;;;6209293;23;20012;-88
2021/07/08 10:24:37;;;;;;;5.15;2.90;;;24.40;82.40;;;;;;6159683;23;20011;-85
2021/07/08 10:30:25;;;;;;;4.20;2.75;;;24.70;82.80;;;;;;6155585;23;20025;-88
2021/07/08 10:32:55;;;;;;;3.95;2.80;;;24.80;82.10;;;;;;6130329;23;20001;-87
2021/07/08 10:35:45;;;;;;;5.53;2.92;;;24.90;82.00;;;;;;6129841;23;20009;-86
2021/07/08 10:38:40;;;;;;;5.55;3.20;;;25.00;82.20;;;;;;6154102;23;20012;-86
2021/07/08 10:41:09;;;;;;;3.67;2.70;;;25.10;82.20;;;;;;6127245;23;20010;-86
2021/07/08 10:43:40;;;;;;;4.45;2.58;;;25.20;82.50;;;;;;6178861;23;20041;-85
2021/07/08 10:46:11;;;;;;;5.38;2.75;;;25.30;82.40;;;;;;6157070;23;20338;-85
2021/07/08 10:48:47;;;;;;;8.20;3.38;;;25.30;82.00;;;;;;6154430;23;20002;-87
2021/07/08 10:51:28;;;;;;;4.45;3.10;;;25.40;82.00;;;;;;6154823;23;20002;-87
2021/07/08 10:53:53;;;;;;;4.47;2.58;;;25.40;81.40;;;;;;6155926;23;20040;-87
2021/07/08 10:56:21;;;;;;;4.88;3.08;;;25.40;81.40;;;;;;6130319;23;20013;-86
2021/07/08 10:58:54;;;;;;;4.82;2.90;;;25.40;81.10;;;;;;6154966;23;20002;-87
2021/07/08 11:01:27;;;;;;;3.40;2.65;;;25.50;80.70;;;;;;6178896;23;20013;-87
2021/07/08 11:04:00;;;;;;;5.53;2.83;;;25.60;80.80;;;;;;6178354;23;20341;-86
2021/07/08 11:06:37;;;;;;;4.32;2.40;;;25.60;80.90;;;;;;6155437;23;20317;-87
2021/07/08 11:11:59;;;;;;;4.88;2.53;;;25.70;80.30;;;;;;6155160;23;20017;-87
2021/07/08 11:14:25;;;;;;;4.47;2.63;;;25.80;79.50;;;;;;6129550;23;20016;-86
2021/07/08 11:17:13;;;;;;;5.35;2.38;;;25.80;79.50;;;;;;6154095;23;20463;-86
2021/07/08 11:19:40;;;;;;;4.00;2.40;;;25.90;79.70;;;;;;6154111;23;20131;-86
2021/07/08 11:22:16;;;;;;;5.68;2.60;;;25.90;79.60;;;;;;6179116;23;20014;-87
2021/07/08 11:24:53;;;;;;;4.28;2.55;;;26.00;79.70;;;;;;6153651;23;20429;-87
2021/07/08 11:27:29;;;;;;;4.90;2.67;;;26.10;79.90;;;;;;6129691;23;20089;-88
2021/07/08 11:30:03;;;;;;;5.18;3.38;;;26.10;79.20;;;;;;6178270;23;20028;-87
2021/07/08 11:32:34;;;;;;;5.30;2.60;;;26.10;76.90;;;;;;6155166;23;20006;-85
2021/07/08 11:35:07;;;;;;;5.03;2.47;;;26.20;77.50;;;;;;6155530;23;20008;-86
2021/07/08 11:37:42;;;;;;;3.75;2.28;;;26.20;77.70;;;;;;6153864;23;20077;-85
2021/07/08 11:40:16;;;;;;;5.13;2.80;;;26.30;77.80;;;;;;6153926;23;20253;-86
2021/07/08 11:42:45;;;;;;;4.57;2.50;;;26.30;77.70;;;;;;6178563;23;20020;-85
2021/07/08 11:45:23;;;;;;;3.47;2.10;;;26.30;77.40;;;;;;6153874;23;20051;-86
2021/07/08 11:47:53;;;;;;;4.40;2.50;;;26.30;77.40;;;;;;6153995;23;20051;-87
2021/07/08 11:50:20;;;;;;;;;;;26.40;77.80;;;;;;6129641;23;20014;-87
2021/07/08 11:52:47;;;;;;;4.18;2.75;;;26.40;76.10;;;;;;6151924;23;19975;-87
2021/07/08 11:55:13;;;;;;;5.25;2.83;;;26.40;75.90;;;;;;6152634;23;20006;-86
2021/07/08 11:57:54;;;;;;;4.22;2.30;;;26.40;75.70;;;;;;6151169;23;20013;-87
2021/07/08 12:00:33;;;;;;;5.90;2.50;;;26.50;75.30;;;;;;6177710;23;20353;-86
2021/07/08 12:03:01;;;;;;;4.80;2.20;;;26.50;75.40;;;;;;6178235;23;20006;-86
2021/07/08 12:05:27;;;;;;;3.30;2.13;;;26.50;75.40;;;;;;6154553;23;20010;-86
2021/07/08 12:07:59;;;;;;;4.57;2.60;;;26.50;75.60;;;;;;6128861;23;20377;-87
2021/07/08 12:10:30;;;;;;;5.30;2.60;;;26.60;76.00;;;;;;6154289;23;20006;-86
2021/07/08 12:12:57;;;;;;;4.57;2.28;;;26.60;71.80;;;;;;6151620;23;20417;-86
2021/07/08 12:15:24;;;;;;;5.60;2.53;;;26.50;71.00;;;;;;6129636;23;20337;-86
2021/07/08 12:17:56;;;;;;;4.80;2.20;;;26.50;70.20;;;;;;6150146;23;20016;-87
2021/07/08 12:20:22;;;;;;;6.22;2.50;;;26.40;69.60;;;;;;6153034;23;20013;-87
2021/07/08 12:22:56;;;;;;;4.57;2.60;;;26.30;69.70;;;;;;6150881;23;20052;-86
2021/07/08 12:25:23;;;;;;;5.35;3.15;;;26.40;69.60;;;;;;6151231;23;20064;-87
2021/07/08 12:27:49;;;;;;;5.15;2.60;;;26.40;67.90;;;;;;6150828;23;20073;-87
2021/07/08 12:30:41;;;;;;;5.88;2.40;;;26.40;67.80;;;;;;6176674;23;20109;-87
2021/07/08 12:33:15;;;;;;;3.63;2.30;;;26.40;69.20;;;;;;6124020;23;20031;-87
2021/07/08 12:35:48;;;;;;;4.40;2.40;;;26.40;70.00;;;;;;6153118;23;20001;-86
2021/07/08 12:38:18;;;;;;;5.63;2.20;;;26.40;69.40;;;;;;6177895;23;20049;-87
2021/07/08 12:40:47;;;;;;;3.47;2.17;;;26.40;70.40;;;;;;6129042;23;20009;-86
2021/07/08 12:43:18;;;;;;;7.80;2.40;;;26.50;70.40;;;;;;6153440;23;20095;-87
2021/07/08 12:45:44;;;;;;;5.05;2.53;;;26.50;69.70;;;;;;6153434;23;20068;-87
2021/07/08 12:48:15;;;;;;;5.22;2.33;;;26.40;67.60;;;;;;6128458;23;20105;-87
2021/07/08 12:50:43;;;;;;;5.28;2.60;;;26.30;68.00;;;;;;6128570;23;20002;-87
2021/07/08 12:53:14;;;;;;;4.10;2.13;;;26.30;69.60;;;;;;6177851;23;20009;-87
2021/07/08 12:55:52;;;;;;;4.20;2.10;;;26.30;70.50;;;;;;6152941;23;20007;-87
2021/07/08 12:58:25;;;;;;;4.30;1.90;;;26.40;71.50;;;;;;6152487;23;20029;-87
2021/07/08 13:00:53;;;;;;;4.53;2.28;;;26.40;72.10;;;;;;6154415;23;20429;-87
2021/07/08 13:03:27;;;;;;;3.40;2.28;;;26.50;72.00;;;;;;6152825;23;20006;-87
2021/07/08 13:06:06;;;;;;;3.95;2.13;;;26.50;71.80;;;;;;6152732;23;20006;-87